Time;durP1;ratioP1;P1;durP2;ratioP2;P2;SDS_P1;SDS_P2;PMS_P1;PMS_P2;Temp;Humidity;BMP_temperature;BMP_pressure;BME280_temperature;BME280_humidity;BME280_pressure;Samples;Min_cycle;Max_cycle;Signal;HPM_P1;HPM_P2
2022/06/20 00:01:38;;;;;;;2.95;0.80;;;14.00;99.90;;;;;;5093596;28;20048;-75
2022/06/20 00:04:05;;;;;;;4.57;0.70;;;14.00;99.90;;;;;;5093679;28;20051;-75
2022/06/20 00:06:31;;;;;;;2.22;0.75;;;14.00;99.90;;;;;;5093628;28;20433;-75
2022/06/20 00:08:56;;;;;;;3.30;0.80;;;14.00;99.90;;;;;;5094155;28;20119;-75
2022/06/20 00:11:30;;;;;;;3.95;0.90;;;14.00;99.90;;;;;;5093638;28;20488;-75
2022/06/20 00:13:56;;;;;;;2.85;0.75;;;14.00;99.90;;;;;;5093603;28;20087;-74
2022/06/20 00:16:22;;;;;;;3.05;1.08;;;14.00;99.90;;;;;;5093545;28;20079;-75
2022/06/20 00:18:49;;;;;;;3.38;0.65;;;14.00;99.90;;;;;;5093422;28;20032;-75
2022/06/20 00:21:18;;;;;;;3.70;0.70;;;14.00;99.90;;;;;;5094575;28;20097;-75
2022/06/20 00:23:44;;;;;;;3.67;0.80;;;14.00;99.90;;;;;;5097011;28;20392;-75
2022/06/20 00:26:09;;;;;;;5.43;0.80;;;14.00;99.90;;;;;;5096347;28;20044;-75
2022/06/20 00:28:36;;;;;;;4.45;0.80;;;13.90;99.90;;;;;;5097588;28;20133;-75
2022/06/20 00:31:02;;;;;;;3.83;0.88;;;14.10;99.90;;;;;;5097082;28;20491;-75
2022/06/20 00:33:28;;;;;;;3.53;0.80;;;14.00;99.90;;;;;;5097440;28;20077;-75
2022/06/20 00:35:54;;;;;;;3.95;0.80;;;14.00;99.90;;;;;;5097017;28;20559;-75
2022/06/20 00:38:22;;;;;;;2.53;0.60;;;14.00;99.90;;;;;;5097249;28;20140;-75
2022/06/20 00:41:00;;;;;;;4.10;0.85;;;14.00;99.90;;;;;;5097234;28;20043;-75
2022/06/20 00:43:47;;;;;;;2.70;0.70;;;14.00;99.90;;;;;;5097538;28;20447;-75
2022/06/20 00:46:29;;;;;;;3.15;0.70;;;13.90;99.90;;;;;;5097125;28;20036;-75
2022/06/20 00:49:22;;;;;;;3.13;0.73;;;14.00;99.90;;;;;;5096620;28;20056;-76
2022/06/20 00:51:50;;;;;;;3.65;0.88;;;14.00;99.90;;;;;;5097353;28;20395;-75
2022/06/20 00:54:24;;;;;;;7.55;1.42;;;14.00;99.90;;;;;;5096564;28;20040;-75
2022/06/20 00:57:17;;;;;;;3.75;1.02;;;14.20;99.90;;;;;;5097133;28;20092;-75
2022/06/20 00:59:48;;;;;;;3.97;0.73;;;14.10;99.90;;;;;;5095720;28;20046;-75
2022/06/20 01:02:20;;;;;;;2.13;0.93;;;14.10;99.90;;;;;;5095932;28;20044;-75
2022/06/20 01:04:50;;;;;;;4.47;1.17;;;14.10;99.90;;;;;;5096951;28;20048;-75
2022/06/20 01:07:25;;;;;;;4.00;0.82;;;13.90;99.90;;;;;;5096816;28;20035;-75
2022/06/20 01:09:55;;;;;;;3.30;0.80;;;14.10;99.90;;;;;;5097335;28;20044;-75
2022/06/20 01:12:23;;;;;;;5.90;0.80;;;14.10;99.90;;;;;;5096981;28;20047;-75
2022/06/20 01:14:49;;;;;;;5.22;1.10;;;14.00;99.90;;;;;;5096619;28;20048;-76
2022/06/20 01:17:32;;;;;;;4.75;0.85;;;14.00;99.90;;;;;;5096509;28;20044;-75
2022/06/20 01:20:29;;;;;;;4.32;0.70;;;14.00;99.90;;;;;;5096661;28;20040;-75
2022/06/20 01:23:19;;;;;;;2.67;0.70;;;13.90;99.90;;;;;;5078988;28;20055;-76
2022/06/20 01:25:54;;;;;;;5.35;0.82;;;13.90;99.90;;;;;;5096074;28;20515;-75
2022/06/20 01:28:24;;;;;;;3.03;0.90;;;14.00;99.90;;;;;;5096390;28;20400;-75
2022/06/20 01:30:50;;;;;;;3.92;0.88;;;14.00;99.90;;;;;;5095335;28;20052;-75
2022/06/20 01:33:18;;;;;;;2.92;1.00;;;13.90;99.90;;;;;;5095905;28;20088;-75
2022/06/20 01:38:30;;;;;;;6.05;0.93;;;13.90;99.90;;;;;;5096426;28;20070;-74
2022/06/20 01:43:41;;;;;;;5.70;1.08;;;13.70;99.90;;;;;;5096152;28;20051;-75
2022/06/20 01:46:09;;;;;;;4.50;0.73;;;13.80;99.90;;;;;;5096050;28;20508;-75
2022/06/20 01:48:45;;;;;;;5.18;1.00;;;14.00;99.90;;;;;;5095878;28;20044;-75
2022/06/20 01:51:18;;;;;;;5.30;1.10;;;13.80;99.90;;;;;;5096158;28;20048;-75
2022/06/20 01:53:45;;;;;;;3.67;0.95;;;13.70;99.90;;;;;;5094715;28;20048;-75
2022/06/20 01:56:11;;;;;;;3.53;0.98;;;13.60;99.90;;;;;;5095558;28;20056;-74
2022/06/20 01:58:41;;;;;;;3.30;0.80;;;13.90;99.90;;;;;;5094710;28;20052;-75
2022/06/20 02:01:11;;;;;;;4.47;1.00;;;13.60;99.90;;;;;;5095431;28;20491;-75
2022/06/20 02:03:41;;;;;;;3.33;0.90;;;13.60;99.90;;;;;;5094816;28;20056;-74
2022/06/20 02:06:10;;;;;;;2.53;0.80;;;13.50;99.90;;;;;;5095662;28;20102;-75
2022/06/20 02:08:38;;;;;;;3.17;1.10;;;13.50;99.90;;;;;;5095613;28;20044;-74
2022/06/20 02:11:16;;;;;;;5.85;1.00;;;13.50;99.90;;;;;;5094229;28;20052;-75
2022/06/20 02:13:46;;;;;;;6.03;0.88;;;13.70;99.90;;;;;;5077665;28;20055;-74
2022/06/20 02:16:14;;;;;;;4.10;0.90;;;13.40;99.90;;;;;;5095150;28;20423;-75
2022/06/20 02:18:44;;;;;;;4.60;1.40;;;13.40;99.90;;;;;;5095251;28;20047;-74
2022/06/20 02:21:17;;;;;;;3.13;0.88;;;13.40;99.90;;;;;;5095330;28;20083;-74
2022/06/20 02:23:48;;;;;;;3.13;0.80;;;13.30;99.90;;;;;;5083516;28;20139;-75
2022/06/20 02:26:15;;;;;;;4.18;0.90;;;13.50;99.90;;;;;;5100009;28;20048;-75
2022/06/20 02:28:53;;;;;;;2.47;0.80;;;13.40;99.90;;;;;;5095167;28;20055;-74
2022/06/20 02:31:19;;;;;;;1.63;0.70;;;13.30;99.90;;;;;;5094432;28;20496;-75
2022/06/20 02:33:47;;;;;;;4.05;0.93;;;13.30;99.90;;;;;;5095120;28;20096;-75
2022/06/20 02:36:13;;;;;;;4.40;1.10;;;13.40;99.90;;;;;;5095382;28;20052;-75
2022/06/20 02:38:39;;;;;;;3.25;0.70;;;13.20;99.90;;;;;;5093822;28;20044;-75
2022/06/20 02:41:06;;;;;;;3.25;0.93;;;13.10;99.90;;;;;;5094970;28;20499;-74
2022/06/20 02:43:44;;;;;;;2.30;0.80;;;13.10;99.90;;;;;;5094919;28;20052;-75
2022/06/20 02:46:14;;;;;;;4.43;0.90;;;13.10;99.90;;;;;;5093955;28;20055;-74
2022/06/20 02:48:43;;;;;;;4.35;0.80;;;12.90;99.90;;;;;;5094754;28;20048;-74
2022/06/20 02:51:13;;;;;;;3.92;0.85;;;13.20;99.90;;;;;;5094807;28;20039;-75
2022/06/20 02:53:49;;;;;;;2.03;0.90;;;12.90;99.90;;;;;;5094297;28;20040;-74
2022/06/20 02:56:20;;;;;;;4.07;0.90;;;13.10;99.90;;;;;;5094700;28;20135;-74
2022/06/20 02:59:12;;;;;;;4.75;1.13;;;12.90;99.90;;;;;;5093363;28;20056;-74
2022/06/20 03:01:44;;;;;;;4.60;1.02;;;12.80;99.90;;;;;;5094812;28;20044;-75
2022/06/20 03:04:10;;;;;;;7.82;1.00;;;12.90;99.90;;;;;;5094217;28;20048;-75
2022/06/20 03:06:51;;;;;;;5.50;1.50;;;12.00;99.90;;;;;;5076704;28;20055;-75
2022/06/20 03:09:24;;;;;;;2.70;0.80;;;13.10;99.90;;;;;;5094694;28;20046;-74
2022/06/20 03:11:50;;;;;;;3.57;1.00;;;13.00;99.90;;;;;;5094579;28;20415;-74
2022/06/20 03:14:20;;;;;;;2.05;0.75;;;13.00;99.90;;;;;;5094411;28;20052;-75
2022/06/20 03:16:46;;;;;;;3.20;0.90;;;12.90;99.90;;;;;;5094333;28;20099;-73
2022/06/20 03:19:25;;;;;;;1.38;0.90;;;12.90;99.90;;;;;;5093969;28;20051;-74
2022/06/20 03:21:53;;;;;;;3.83;0.95;;;12.80;99.90;;;;;;5094251;28;20101;-74
2022/06/20 03:24:22;;;;;;;3.63;1.00;;;12.90;99.90;;;;;;5093758;28;20086;-74
2022/06/20 03:26:50;;;;;;;5.70;0.90;;;12.90;99.90;;;;;;5094239;28;20044;-74
2022/06/20 03:29:18;;;;;;;3.00;0.93;;;12.80;99.90;;;;;;5094116;28;20044;-74
2022/06/20 03:31:44;;;;;;;3.22;0.80;;;12.70;99.90;;;;;;5094143;28;20048;-74
2022/06/20 03:34:11;;;;;;;5.25;0.98;;;12.90;99.90;;;;;;5092814;28;20330;-75
2022/06/20 03:36:39;;;;;;;3.80;0.80;;;12.70;99.90;;;;;;5094044;28;20073;-74
2022/06/20 03:39:06;;;;;;;4.15;0.85;;;12.80;99.90;;;;;;5093889;28;20141;-75
2022/06/20 03:41:32;;;;;;;3.92;1.20;;;13.00;99.90;;;;;;5093989;28;20393;-75
2022/06/20 03:44:03;;;;;;;3.28;1.02;;;12.90;99.90;;;;;;5093922;28;20181;-76
2022/06/20 03:46:53;;;;;;;5.85;1.00;;;12.70;99.90;;;;;;5094414;28;20412;-75
2022/06/20 03:49:41;;;;;;;2.90;0.90;;;12.80;99.90;;;;;;5092872;28;20548;-75
2022/06/20 03:52:30;;;;;;;2.15;0.80;;;12.80;99.90;;;;;;5094069;28;20510;-75
2022/06/20 03:55:00;;;;;;;4.15;0.95;;;12.80;99.90;;;;;;5093227;28;20051;-75
2022/06/20 03:57:48;;;;;;;4.50;0.95;;;12.40;99.90;;;;;;5093586;28;20056;-75
2022/06/20 04:00:20;;;;;;;4.28;1.00;;;12.50;99.90;;;;;;5093926;28;20387;-75
2022/06/20 04:02:45;;;;;;;3.30;1.10;;;12.40;99.90;;;;;;5094389;28;20044;-74
2022/06/20 04:05:34;;;;;;;4.95;2.72;;;12.50;99.90;;;;;;5092826;28;20040;-74
2022/06/20 04:08:08;;;;;;;4.10;1.88;;;12.40;99.90;;;;;;5093868;28;20040;-75
2022/06/20 04:10:59;;;;;;;3.03;1.20;;;12.40;99.90;;;;;;5093892;28;20044;-75
2022/06/20 04:13:32;;;;;;;2.72;0.80;;;12.30;99.90;;;;;;5093424;28;20492;-75
2022/06/20 04:16:13;;;;;;;4.70;1.20;;;12.30;99.90;;;;;;5093709;28;20048;-75
2022/06/20 04:19:14;;;;;;;5.00;1.05;;;12.30;99.90;;;;;;5093537;28;20044;-76
2022/06/20 04:21:44;;;;;;;5.47;1.42;;;12.30;99.90;;;;;;5094206;28;20059;-75
2022/06/20 04:24:35;;;;;;;2.10;1.10;;;12.40;99.90;;;;;;5093056;28;20141;-75
2022/06/20 04:27:35;;;;;;;4.68;1.27;;;12.40;99.90;;;;;;5093750;28;20048;-75
2022/06/20 04:30:08;;;;;;;2.05;1.00;;;12.40;99.90;;;;;;5078240;28;20048;-75
2022/06/20 04:32:43;;;;;;;4.53;1.33;;;12.40;99.90;;;;;;5093393;28;20526;-74
2022/06/20 04:35:18;;;;;;;4.03;1.20;;;12.50;99.90;;;;;;5094051;28;20048;-74
2022/06/20 04:37:54;;;;;;;3.03;1.17;;;12.50;99.90;;;;;;5093491;28;20048;-75
2022/06/20 04:40:19;;;;;;;1.75;0.80;;;12.50;99.90;;;;;;5093289;28;20048;-75
2022/06/20 04:43:27;;;;;;;5.60;1.27;;;12.60;99.90;;;;;;5093330;28;20051;-75
2022/06/20 04:46:17;;;;;;;4.07;1.10;;;12.60;99.90;;;;;;5055306;28;20495;-75
2022/06/20 04:48:46;;;;;;;4.80;1.13;;;12.60;99.90;;;;;;5092865;28;20369;-75
2022/06/20 04:51:17;;;;;;;4.43;1.20;;;12.70;99.90;;;;;;5092839;28;20044;-75
2022/06/20 04:53:46;;;;;;;5.95;1.38;;;12.70;99.90;;;;;;5092715;28;20052;-75
2022/06/20 04:56:14;;;;;;;3.63;1.35;;;12.80;99.90;;;;;;5093082;28;20147;-75
2022/06/20 04:58:53;;;;;;;2.80;1.10;;;12.90;99.90;;;;;;5075320;28;20082;-75
2022/06/20 05:01:20;;;;;;;4.68;1.40;;;12.90;99.90;;;;;;5092282;28;20135;-75
2022/06/20 05:03:55;;;;;;;6.72;1.45;;;13.00;99.90;;;;;;5093188;28;20040;-76
2022/06/20 05:06:29;;;;;;;6.63;1.33;;;13.00;99.90;;;;;;5093162;28;20080;-75
2022/06/20 05:09:16;;;;;;;4.75;1.45;;;13.00;99.90;;;;;;5095609;28;20052;-76
2022/06/20 05:11:53;;;;;;;4.60;1.42;;;13.10;99.90;;;;;;5096794;28;20046;-76
2022/06/20 05:14:36;;;;;;;4.32;1.23;;;13.10;99.90;;;;;;5096225;28;20151;-76
2022/06/20 05:17:04;;;;;;;5.20;1.33;;;13.20;99.90;;;;;;5096842;28;20051;-76
2022/06/20 05:19:35;;;;;;;4.65;1.30;;;13.20;99.90;;;;;;5096631;28;20374;-76
2022/06/20 05:22:08;;;;;;;3.88;1.13;;;13.30;99.90;;;;;;5097487;28;20044;-76
2022/06/20 05:24:39;;;;;;;3.83;1.30;;;13.30;99.90;;;;;;5095807;28;20480;-75
2022/06/20 05:27:27;;;;;;;4.78;1.42;;;13.30;99.90;;;;;;5095299;28;20052;-76
2022/06/20 05:29:55;;;;;;;8.57;1.52;;;13.40;99.90;;;;;;5096272;28;20484;-76
2022/06/20 05:32:35;;;;;;;4.20;1.45;;;13.40;99.90;;;;;;5098509;28;20048;-76
2022/06/20 05:35:08;;;;;;;4.57;1.35;;;13.40;99.90;;;;;;5098194;28;20048;-75
2022/06/20 05:38:01;;;;;;;6.80;1.70;;;13.50;99.90;;;;;;5095996;28;20101;-75
2022/06/20 05:40:29;;;;;;;4.78;2.05;;;13.50;99.90;;;;;;5096305;28;20054;-75
2022/06/20 05:42:55;;;;;;;8.15;1.60;;;13.60;99.90;;;;;;5096209;28;20044;-75
2022/06/20 05:45:23;;;;;;;2.22;1.27;;;13.60;99.90;;;;;;5096147;28;20142;-74
2022/06/20 05:47:54;;;;;;;5.88;1.38;;;13.60;99.90;;;;;;5096110;28;20048;-75
2022/06/20 05:50:46;;;;;;;4.10;1.63;;;13.60;99.90;;;;;;5078623;28;20056;-75
2022/06/20 05:53:39;;;;;;;7.22;1.90;;;13.70;99.90;;;;;;5095438;28;20040;-75
2022/06/20 05:56:36;;;;;;;8.38;2.00;;;13.80;99.90;;;;;;5084518;28;20484;-74
2022/06/20 05:59:03;;;;;;;6.55;1.80;;;13.80;99.90;;;;;;5091625;28;20051;-75
2022/06/20 06:01:33;;;;;;;4.05;1.52;;;13.80;99.90;;;;;;5078014;28;20511;-76
2022/06/20 06:04:26;;;;;;;7.57;1.55;;;13.90;99.90;;;;;;5095795;28;20055;-75
2022/06/20 06:07:04;;;;;;;6.90;1.85;;;13.90;99.90;;;;;;5095785;28;20044;-74
2022/06/20 06:10:19;;;;;;;4.55;1.60;;;14.00;99.90;;;;;;5095708;28;20040;-76
2022/06/20 06:12:51;;;;;;;5.80;1.58;;;14.00;99.90;;;;;;5077413;28;20048;-76
2022/06/20 06:15:27;;;;;;;5.18;1.75;;;14.10;99.90;;;;;;5095643;28;20137;-75
2022/06/20 06:17:59;;;;;;;6.13;2.15;;;14.20;99.90;;;;;;5095611;28;20055;-75
2022/06/20 06:20:27;;;;;;;11.37;2.10;;;14.20;99.90;;;;;;5094249;28;20044;-75
2022/06/20 06:23:14;;;;;;;5.95;1.85;;;14.20;99.90;;;;;;5093569;28;20396;-72
2022/06/20 06:25:43;;;;;;;5.82;1.92;;;14.30;99.90;;;;;;5095236;28;20055;-75
2022/06/20 06:28:17;;;;;;;4.47;1.50;;;14.30;99.90;;;;;;5094039;28;20381;-75
2022/06/20 06:30:56;;;;;;;5.68;2.22;;;14.30;99.90;;;;;;5095274;28;20044;-75
2022/06/20 06:33:34;;;;;;;5.63;1.50;;;14.40;99.90;;;;;;5095801;28;20052;-76
2022/06/20 06:36:16;;;;;;;5.68;1.88;;;14.40;99.90;;;;;;5093987;28;20044;-75
2022/06/20 06:38:50;;;;;;;4.30;1.23;;;14.40;99.90;;;;;;5094889;28;20109;-75
2022/06/20 06:41:29;;;;;;;7.35;1.38;;;14.40;99.90;;;;;;5095242;28;20392;-77
2022/06/20 06:43:57;;;;;;;7.63;1.88;;;14.40;99.90;;;;;;5095054;28;20063;-74
2022/06/20 06:46:34;;;;;;;7.68;2.75;;;14.40;99.90;;;;;;5094941;28;20070;-74
2022/06/20 06:49:12;;;;;;;6.47;2.15;;;14.40;99.90;;;;;;5095071;28;20040;-74
2022/06/20 06:52:20;;;;;;;7.95;1.73;;;14.40;99.90;;;;;;5095152;28;20431;-76
2022/06/20 06:54:59;;;;;;;7.95;1.67;;;14.40;99.90;;;;;;5011935;28;20045;-76
2022/06/20 06:57:59;;;;;;;8.20;1.65;;;14.60;99.90;;;;;;5012975;28;20501;-75
2022/06/20 07:00:36;;;;;;;5.60;1.85;;;14.60;99.90;;;;;;5076621;28;20496;-77
2022/06/20 07:03:11;;;;;;;6.40;1.50;;;14.70;99.90;;;;;;5091640;28;20044;-77
2022/06/20 07:05:41;;;;;;;7.43;1.50;;;14.80;99.90;;;;;;5094753;28;20040;-76
2022/06/20 07:08:15;;;;;;;8.27;1.90;;;14.90;99.90;;;;;;5094641;28;20040;-76
2022/06/20 07:10:49;;;;;;;6.65;1.83;;;15.10;99.90;;;;;;5093937;28;20048;-74
2022/06/20 07:13:20;;;;;;;6.00;1.50;;;15.20;99.90;;;;;;5094537;28;20043;-74
2022/06/20 07:15:48;;;;;;;8.45;1.60;;;15.20;99.90;;;;;;5094519;28;20076;-73
2022/06/20 07:18:50;;;;;;;5.22;1.48;;;15.30;99.90;;;;;;5094755;28;20071;-76
2022/06/20 07:21:18;;;;;;;4.30;1.40;;;15.30;99.90;;;;;;5093603;28;20097;-73
2022/06/20 07:23:52;;;;;;;4.63;1.30;;;15.30;99.90;;;;;;5092929;28;20052;-79
2022/06/20 07:26:22;;;;;;;5.20;1.40;;;15.20;99.90;;;;;;5093867;28;20407;-79
2022/06/20 07:28:48;;;;;;;4.10;1.38;;;15.20;99.90;;;;;;5093166;28;20052;-71
2022/06/20 07:31:25;;;;;;;3.55;1.02;;;15.20;99.90;;;;;;5093900;28;20126;-73
2022/06/20 07:33:59;;;;;;;3.55;1.10;;;15.20;99.90;;;;;;5094709;28;20139;-73
2022/06/20 07:36:30;;;;;;;2.67;0.98;;;15.20;99.90;;;;;;5093499;28;20051;-73
2022/06/20 07:38:59;;;;;;;5.38;1.15;;;15.30;99.90;;;;;;5094043;28;20050;-72
2022/06/20 07:41:42;;;;;;;5.82;1.90;;;15.30;99.90;;;;;;5094050;28;20056;-73
2022/06/20 07:44:23;;;;;;;5.95;1.60;;;15.40;99.90;;;;;;5093133;28;20123;-71
2022/06/20 07:46:58;;;;;;;6.72;1.33;;;15.50;99.90;;;;;;5094565;28;20052;-69
2022/06/20 07:49:44;;;;;;;5.97;1.30;;;15.70;99.90;;;;;;5094543;28;20136;-71
2022/06/20 07:52:15;;;;;;;7.20;1.20;;;15.80;99.90;;;;;;5094029;28;20051;-71
2022/06/20 07:54:53;;;;;;;3.42;1.38;;;15.80;99.90;;;;;;5093385;28;20040;-71
2022/06/20 07:57:27;;;;;;;5.22;1.20;;;15.80;99.90;;;;;;5094134;28;20067;-72
2022/06/20 08:00:02;;;;;;;6.97;1.40;;;15.60;99.90;;;;;;5093817;28;20040;-75
2022/06/20 08:02:37;;;;;;;10.07;1.40;;;15.50;99.90;;;;;;5094806;28;20063;-75
2022/06/20 08:05:06;;;;;;;6.75;1.38;;;15.40;99.90;;;;;;5093204;28;20043;-75
2022/06/20 08:07:41;;;;;;;6.35;1.52;;;15.40;99.90;;;;;;5093344;28;20097;-75
2022/06/20 08:10:25;;;;;;;5.85;1.10;;;15.30;99.90;;;;;;5090798;28;20187;-76
2022/06/20 08:13:02;;;;;;;5.20;1.38;;;15.30;99.90;;;;;;5091312;28;20384;-77
2022/06/20 08:15:41;;;;;;;4.50;1.45;;;15.30;99.90;;;;;;5090773;28;20422;-75
2022/06/20 08:18:07;;;;;;;4.20;1.48;;;15.40;99.90;;;;;;5090779;28;20044;-74
2022/06/20 08:20:38;;;;;;;5.55;0.82;;;15.60;99.90;;;;;;5094025;28;20555;-73
2022/06/20 08:23:19;;;;;;;4.57;0.93;;;15.70;99.90;;;;;;5091512;28;20074;-75
2022/06/20 08:25:55;;;;;;;2.60;0.90;;;15.80;99.90;;;;;;5092274;28;20040;-74
2022/06/20 08:28:27;;;;;;;3.05;0.73;;;15.80;99.90;;;;;;5093230;28;20119;-72
2022/06/20 08:30:59;;;;;;;3.72;1.48;;;15.90;99.90;;;;;;5091302;28;20036;-74
2022/06/20 08:33:41;;;;;;;1.95;0.73;;;16.00;99.90;;;;;;5092176;28;20094;-74
2022/06/20 08:36:23;;;;;;;1.65;0.60;;;16.10;99.90;;;;;;5090446;28;20040;-74
2022/06/20 08:39:12;;;;;;;1.95;0.70;;;16.10;99.90;;;;;;5089417;28;20055;-75
2022/06/20 08:41:59;;;;;;;2.60;0.57;;;16.10;99.90;;;;;;5090609;28;20097;-75
2022/06/20 08:44:34;;;;;;;1.10;0.50;;;16.20;99.90;;;;;;5095791;28;20119;-73
2022/06/20 08:47:21;;;;;;;1.35;0.93;;;16.30;99.90;;;;;;5096619;28;20558;-71
2022/06/20 08:50:11;;;;;;;1.98;0.60;;;16.40;99.90;;;;;;5085908;28;20515;-72
2022/06/20 08:53:11;;;;;;;1.98;0.45;;;16.50;99.90;;;;;;5091650;28;20499;-72
2022/06/20 08:55:43;;;;;;;2.22;0.60;;;16.60;99.90;;;;;;5088948;28;20074;-73
2022/06/20 08:58:37;;;;;;;2.22;0.60;;;16.60;99.90;;;;;;5088090;28;20051;-74
2022/06/20 09:01:15;;;;;;;2.75;0.63;;;16.70;99.90;;;;;;5085528;28;20056;-73
2022/06/20 09:04:08;;;;;;;2.35;0.52;;;16.60;99.90;;;;;;5085351;28;20062;-72
2022/06/20 09:07:06;;;;;;;4.82;0.77;;;16.90;99.90;;;;;;5085406;28;20109;-74
2022/06/20 09:10:07;;;;;;;3.13;0.70;;;16.90;99.90;;;;;;5083200;28;20054;-71
2022/06/20 09:12:45;;;;;;;2.88;0.68;;;16.90;99.90;;;;;;5075541;28;20047;-71
2022/06/20 09:15:48;;;;;;;2.97;0.70;;;16.70;99.90;;;;;;5090258;28;20058;-74
2022/06/20 09:18:17;;;;;;;1.40;0.50;;;16.60;99.90;;;;;;5091629;28;20043;-75
2022/06/20 09:20:53;;;;;;;2.95;0.63;;;16.50;99.90;;;;;;5090591;28;20048;-71
2022/06/20 09:23:37;;;;;;;1.58;0.80;;;16.50;99.90;;;;;;5083053;28;20055;-73
2022/06/20 09:26:22;;;;;;;5.45;1.10;;;16.60;99.90;;;;;;5088370;28;20051;-73
2022/06/20 09:29:19;;;;;;;3.50;0.80;;;16.70;99.90;;;;;;5089028;28;20145;-73
2022/06/20 09:32:03;;;;;;;4.28;1.05;;;16.70;99.90;;;;;;5090479;28;20484;-74
2022/06/20 09:34:35;;;;;;;2.85;0.70;;;16.60;99.90;;;;;;5085358;28;20055;-71
2022/06/20 09:37:12;;;;;;;2.72;0.88;;;16.50;99.90;;;;;;5087076;28;20049;-71
2022/06/20 09:39:56;;;;;;;3.92;0.63;;;16.40;99.90;;;;;;5094122;28;20085;-74
2022/06/20 09:42:37;;;;;;;2.38;0.75;;;16.40;99.90;;;;;;5095082;28;20071;-74
2022/06/20 09:45:09;;;;;;;1.98;0.63;;;16.40;99.90;;;;;;5095210;28;20120;-75
2022/06/20 09:47:44;;;;;;;2.90;0.80;;;16.40;99.90;;;;;;5095845;28;20052;-71
2022/06/20 09:50:31;;;;;;;2.67;0.70;;;16.40;99.90;;;;;;5093273;28;20116;-71
2022/06/20 09:53:24;;;;;;;4.03;0.75;;;16.40;99.90;;;;;;5093916;28;20050;-71
2022/06/20 09:55:58;;;;;;;4.65;1.10;;;16.40;99.90;;;;;;5093119;28;20454;-72
2022/06/20 09:58:45;;;;;;;4.03;0.90;;;16.30;99.90;;;;;;5095557;28;20396;-73
2022/06/20 10:01:39;;;;;;;3.35;1.05;;;16.30;99.90;;;;;;5093181;28;20040;-73
2022/06/20 10:04:38;;;;;;;1.80;0.85;;;16.30;99.90;;;;;;5095099;28;20051;-73
2022/06/20 10:07:19;;;;;;;3.47;0.98;;;16.40;99.90;;;;;;5095022;28;20051;-73
2022/06/20 10:10:03;;;;;;;2.75;0.80;;;16.60;99.90;;;;;;5095391;28;20085;-74
2022/06/20 10:12:54;;;;;;;3.80;0.73;;;16.80;99.90;;;;;;5092873;28;20040;-71
2022/06/20 10:15:45;;;;;;;2.22;0.80;;;16.80;99.90;;;;;;5094226;28;20047;-75
2022/06/20 10:18:32;;;;;;;1.98;0.70;;;16.70;99.90;;;;;;5092889;28;20046;-74
2022/06/20 10:21:06;;;;;;;3.58;0.77;;;16.70;99.90;;;;;;5092826;28;20047;-73
2022/06/20 10:23:43;;;;;;;4.22;0.90;;;16.80;99.90;;;;;;5091037;28;20488;-73
2022/06/20 10:26:40;;;;;;;2.95;0.50;;;16.80;99.90;;;;;;5092453;28;20039;-79
2022/06/20 10:29:42;;;;;;;3.67;0.70;;;16.80;99.90;;;;;;5094712;28;20032;-75
2022/06/20 10:32:19;;;;;;;1.17;0.70;;;16.80;99.90;;;;;;5092379;28;20392;-73
2022/06/20 10:35:08;;;;;;;3.85;0.93;;;16.80;99.90;;;;;;5094848;28;20050;-74
2022/06/20 10:37:52;;;;;;;2.20;0.70;;;16.80;99.90;;;;;;5092968;28;20048;-74
2022/06/20 10:40:33;;;;;;;4.82;0.95;;;16.90;99.90;;;;;;5093081;28;20104;-72
2022/06/20 10:43:28;;;;;;;3.97;0.70;;;16.90;99.90;;;;;;5092101;28;20388;-71
2022/06/20 10:46:16;;;;;;;3.85;0.70;;;16.90;99.90;;;;;;5074901;28;20036;-71
2022/06/20 10:48:59;;;;;;;3.72;0.75;;;16.80;99.90;;;;;;5093793;28;20051;-73
2022/06/20 10:51:35;;;;;;;3.83;0.80;;;17.00;99.90;;;;;;5094186;28;20399;-71
2022/06/20 10:54:45;;;;;;;3.85;0.70;;;17.10;99.90;;;;;;5092288;28;20511;-72
2022/06/20 10:57:37;;;;;;;3.45;0.88;;;17.20;99.90;;;;;;5022436;28;20045;-74
2022/06/20 11:00:17;;;;;;;2.58;0.70;;;17.20;99.90;;;;;;5091293;28;20051;-74
2022/06/20 11:03:19;;;;;;;1.27;0.55;;;17.30;99.90;;;;;;5093615;28;20458;-71
2022/06/20 11:06:07;;;;;;;3.22;0.60;;;17.20;99.90;;;;;;5092764;28;20055;-74
2022/06/20 11:08:42;;;;;;;3.40;0.60;;;17.30;99.90;;;;;;5091962;28;20488;-73
2022/06/20 11:11:27;;;;;;;2.78;0.80;;;17.30;99.90;;;;;;5092212;28;20391;-75
2022/06/20 11:14:05;;;;;;;2.05;0.70;;;17.30;99.90;;;;;;5090309;28;20395;-72
2022/06/20 11:16:34;;;;;;;2.20;0.70;;;17.30;99.90;;;;;;5090816;28;20384;-72
2022/06/20 11:19:23;;;;;;;2.67;0.65;;;17.40;99.90;;;;;;5093128;28;20047;-73
2022/06/20 11:22:20;;;;;;;2.15;0.98;;;17.50;99.90;;;;;;5090485;28;20089;-78
2022/06/20 11:25:23;;;;;;;2.70;0.90;;;17.50;99.90;;;;;;5092388;28;20056;-73
2022/06/20 11:27:58;;;;;;;3.42;0.80;;;17.60;99.90;;;;;;5089866;28;20054;-74
2022/06/20 11:30:57;;;;;;;1.92;0.73;;;17.50;99.90;;;;;;5091455;28;20096;-71
2022/06/20 11:34:03;;;;;;;1.00;0.60;;;17.60;99.90;;;;;;5090075;28;20043;-73
2022/06/20 11:36:54;;;;;;;2.80;0.68;;;17.70;99.90;;;;;;5090253;28;20040;-72
2022/06/20 11:39:29;;;;;;;3.25;0.77;;;17.90;99.90;;;;;;5091433;28;20043;-73
2022/06/20 11:42:16;;;;;;;3.88;0.70;;;17.90;99.90;;;;;;5088576;28;20044;-72
2022/06/20 11:45:20;;;;;;;4.43;1.08;;;17.90;99.90;;;;;;5080556;28;20056;-75
2022/06/20 11:48:15;;;;;;;3.13;0.70;;;17.90;99.90;;;;;;5092300;28;20040;-71
2022/06/20 11:50:48;;;;;;;3.58;0.85;;;18.00;99.90;;;;;;5091927;28;20415;-75
2022/06/20 11:53:28;;;;;;;3.55;0.80;;;18.00;99.90;;;;;;5090048;28;20392;-72
2022/06/20 11:56:13;;;;;;;3.35;0.65;;;18.00;99.90;;;;;;5090494;28;20048;-77
2022/06/20 11:59:01;;;;;;;4.25;0.98;;;18.00;99.90;;;;;;5091383;28;20561;-77
2022/06/20 12:01:36;;;;;;;3.53;1.10;;;17.90;99.90;;;;;;5092097;28;20127;-72
2022/06/20 12:04:14;;;;;;;1.85;0.70;;;17.90;99.90;;;;;;5091595;28;20044;-72
2022/06/20 12:06:42;;;;;;;2.28;0.70;;;17.80;99.90;;;;;;5090250;28;20530;-71
2022/06/20 12:09:31;;;;;;;1.83;0.85;;;17.80;99.90;;;;;;5092763;28;20064;-71
2022/06/20 12:12:33;;;;;;;1.50;0.60;;;17.80;99.90;;;;;;5086992;28;20072;-73
2022/06/20 12:14:58;;;;;;;1.27;0.75;;;17.80;99.90;;;;;;5092600;28;20134;-72
2022/06/20 12:17:47;;;;;;;2.53;0.90;;;17.80;99.90;;;;;;5098674;28;20072;-72
2022/06/20 12:23:48;;;;;;;3.40;0.80;;;17.90;99.90;;;;;;5105772;28;20063;-72
2022/06/20 12:26:20;;;;;;;2.30;0.82;;;17.80;99.90;;;;;;5092614;28;20056;-71
2022/06/20 12:28:51;;;;;;;2.65;0.93;;;17.70;99.90;;;;;;5096508;28;20044;-71
2022/06/20 12:31:29;;;;;;;2.53;0.77;;;17.80;99.90;;;;;;5096627;28;20047;-72
2022/06/20 12:34:05;;;;;;;3.85;0.70;;;17.90;99.90;;;;;;5093557;28;20410;-74
2022/06/20 12:36:55;;;;;;;2.50;0.75;;;17.80;99.90;;;;;;5092815;28;20065;-72
2022/06/20 12:39:46;;;;;;;4.78;0.80;;;17.90;99.90;;;;;;5095201;28;20040;-73
2022/06/20 12:42:22;;;;;;;1.90;0.80;;;18.00;99.90;;;;;;5092918;28;20063;-72
2022/06/20 12:45:22;;;;;;;2.65;0.70;;;18.00;99.90;;;;;;5096231;28;20062;-73
2022/06/20 12:48:03;;;;;;;1.77;0.80;;;18.00;99.90;;;;;;5095889;28;20044;-70
2022/06/20 12:50:48;;;;;;;2.55;0.70;;;18.10;98.90;;;;;;5094518;28;20070;-74
2022/06/20 12:53:31;;;;;;;1.88;0.80;;;18.20;99.50;;;;;;5093484;28;20052;-73
2022/06/20 12:56:14;;;;;;;4.20;0.70;;;18.30;99.40;;;;;;5094370;28;20113;-72
2022/06/20 12:58:59;;;;;;;;;;;18.20;99.40;;;;;;5095064;28;20048;-71
2022/06/20 13:01:30;;;;;;;3.25;1.10;;;17.80;99.30;;;;;;5095378;28;19962;-73
2022/06/20 13:04:14;;;;;;;3.65;1.02;;;17.90;99.90;;;;;;5095897;28;20040;-73
2022/06/20 13:07:18;;;;;;;2.08;1.00;;;17.80;99.90;;;;;;5076708;28;20044;-73
2022/06/20 13:10:03;;;;;;;;;;;17.60;99.90;;;;;;5095682;28;20036;-73
2022/06/20 13:12:29;;;;;;;2.22;0.90;;;17.50;99.90;;;;;;5095791;28;19924;-71
2022/06/20 13:15:41;;;;;;;3.05;0.90;;;17.50;99.90;;;;;;5095799;28;20063;-72
2022/06/20 13:18:53;;;;;;;3.20;0.90;;;17.40;99.90;;;;;;5088371;28;20052;-72
2022/06/20 13:21:29;;;;;;;3.65;1.10;;;17.40;99.90;;;;;;5062982;28;20495;-72
2022/06/20 13:24:41;;;;;;;2.38;1.42;;;17.30;99.90;;;;;;5091547;28;20039;-70
2022/06/20 13:27:15;;;;;;;3.60;1.00;;;17.20;99.90;;;;;;5094297;28;20040;-71
2022/06/20 13:29:48;;;;;;;3.75;0.85;;;17.20;99.90;;;;;;5094522;28;20118;-73
2022/06/20 13:32:16;;;;;;;;;;;17.20;99.90;;;;;;5093588;28;20040;-72
2022/06/20 13:34:57;;;;;;;2.92;0.95;;;17.40;99.90;;;;;;5094160;28;19969;-73
2022/06/20 13:37:45;;;;;;;4.38;1.00;;;17.50;99.90;;;;;;5094253;28;20476;-72
2022/06/20 13:40:38;;;;;;;2.20;0.80;;;17.60;99.90;;;;;;5091329;28;20040;-72
2022/06/20 13:43:16;;;;;;;3.67;0.90;;;17.70;99.90;;;;;;5094490;28;20377;-72
2022/06/20 13:45:53;;;;;;;4.93;1.00;;;17.80;99.90;;;;;;5093979;28;20047;-73
2022/06/20 13:48:39;;;;;;;4.20;0.75;;;17.80;99.90;;;;;;5093652;28;20535;-73
2022/06/20 13:51:28;;;;;;;2.80;0.95;;;17.80;99.90;;;;;;5094567;28;20139;-73
2022/06/20 13:54:15;;;;;;;1.58;0.85;;;17.80;99.90;;;;;;5088960;28;20131;-73
2022/06/20 13:57:02;;;;;;;4.85;1.05;;;17.70;99.90;;;;;;5092352;28;20446;-74